Time;durP1;ratioP1;P1;durP2;ratioP2;P2;SDS_P1;SDS_P2;PMS_P1;PMS_P2;Temp;Humidity;BMP_temperature;BMP_pressure;BME280_temperature;BME280_humidity;BME280_pressure;Samples;Min_cycle;Max_cycle;Signal;HPM_P1;HPM_P2
2023/09/01 00:02:24;;;;;;;9.38;3.88;;;;;;;13.48;100.00;101005.88;4937589;29;20038;-88
2023/09/01 00:04:49;;;;;;;10.83;4.60;;;;;;;13.48;100.00;101002.34;4905683;29;20039;-88
2023/09/01 00:07:20;;;;;;;14.40;4.00;;;;;;;13.51;100.00;100999.16;4938525;29;20089;-88
2023/09/01 00:09:45;;;;;;;10.43;4.73;;;;;;;13.50;100.00;100994.75;4921755;29;20027;-89
2023/09/01 00:12:38;;;;;;;12.43;4.03;;;;;;;13.58;100.00;100997.16;4937754;29;20353;-88
2023/09/01 00:15:14;;;;;;;9.18;4.20;;;;;;;13.57;100.00;100991.91;4921818;29;20118;-88
2023/09/01 00:17:49;;;;;;;8.97;3.80;;;;;;;13.53;100.00;100980.66;4937769;29;20102;-88
2023/09/01 00:20:24;;;;;;;14.25;4.03;;;;;;;13.50;100.00;100984.66;4921332;29;20541;-88
2023/09/01 00:22:57;;;;;;;10.25;4.40;;;;;;;13.54;100.00;100998.69;4906659;29;20380;-88
2023/09/01 00:25:23;;;;;;;8.38;3.72;;;;;;;13.44;100.00;100988.31;4922089;29;20032;-88
2023/09/01 00:27:53;;;;;;;10.53;4.30;;;;;;;13.46;100.00;100982.63;4937189;29;20035;-88
2023/09/01 00:30:21;;;;;;;9.00;4.32;;;;;;;13.40;100.00;100978.94;4905699;29;20039;-88
2023/09/01 00:32:46;;;;;;;9.40;4.10;;;;;;;13.44;100.00;100988.31;4936744;29;20091;-88
2023/09/01 00:35:12;;;;;;;10.60;4.00;;;;;;;13.37;100.00;100971.22;4905268;29;20028;-88
2023/09/01 00:37:52;;;;;;;7.97;3.93;;;;;;;13.35;100.00;100976.09;4921046;29;20036;-88
2023/09/01 00:40:26;;;;;;;10.35;3.75;;;;;;;13.32;100.00;100973.78;4907116;29;20040;-89
2023/09/01 00:42:53;;;;;;;14.18;4.15;;;;;;;13.34;100.00;100968.97;4906186;29;20038;-88
2023/09/01 00:45:41;;;;;;;11.57;4.05;;;;;;;13.33;100.00;100969.97;4921023;29;20110;-88
2023/09/01 00:48:17;;;;;;;9.20;3.80;;;;;;;13.31;100.00;100966.66;4922184;29;20115;-88
2023/09/01 00:50:50;;;;;;;14.40;3.83;;;;;;;13.32;100.00;100965.63;4938527;29;20034;-88
2023/09/01 00:53:20;;;;;;;10.50;4.22;;;;;;;13.30;100.00;100967.72;4920930;29;20122;-89
2023/09/01 00:56:06;;;;;;;;;;;;;;;;;;;;;
2023/09/01 00:58:42;;;;;;;10.77;3.80;;;;;;;13.30;100.00;100970.44;4938311;29;20039;-88
2023/09/01 01:01:13;;;;;;;11.23;4.23;;;;;;;13.26;100.00;100961.91;4922295;29;20099;-88
2023/09/01 01:03:40;;;;;;;8.95;3.60;;;;;;;13.31;100.00;100972.13;4921379;29;20376;-87
2023/09/01 01:06:36;;;;;;;9.70;3.88;;;;;;;13.34;100.00;100979.88;4920442;29;20042;-88
2023/09/01 01:09:25;;;;;;;10.60;3.80;;;;;;;13.29;100.00;100972.34;4920616;29;20035;-88
2023/09/01 01:12:35;;;;;;;10.68;3.97;;;;;;;13.27;100.00;100982.66;4936488;29;20035;-88
2023/09/01 01:15:09;;;;;;;10.37;3.80;;;;;;;13.28;100.00;100975.31;4920716;29;20050;-88
2023/09/01 01:17:46;;;;;;;8.85;3.40;;;;;;;13.27;100.00;100984.53;4920154;29;20038;-88
2023/09/01 01:20:22;;;;;;;7.55;3.55;;;;;;;13.31;100.00;100991.19;4919703;29;20040;-88
2023/09/01 01:23:14;;;;;;;9.65;3.25;;;;;;;13.23;100.00;100977.88;4937045;29;20500;-88
2023/09/01 01:25:52;;;;;;;6.03;3.47;;;;;;;13.23;100.00;100967.84;4936088;29;20047;-88
2023/09/01 01:28:26;;;;;;;11.50;3.87;;;;;;;13.25;100.00;100968.41;4919969;29;20023;-88
2023/09/01 01:30:54;;;;;;;8.38;3.78;;;;;;;13.23;100.00;100967.84;4905052;29;20361;-88
2023/09/01 01:33:53;;;;;;;8.50;3.45;;;;;;;13.24;100.00;100966.78;4920164;29;20457;-88
2023/09/01 01:36:30;;;;;;;8.63;4.07;;;;;;;13.27;100.00;100965.47;4920355;29;20429;-88
2023/09/01 01:39:28;;;;;;;9.48;3.70;;;;;;;13.30;100.00;100970.44;4919813;29;20095;-88
2023/09/01 01:42:08;;;;;;;10.00;3.50;;;;;;;13.33;100.00;100976.28;4878774;29;20054;-88
2023/09/01 01:44:45;;;;;;;11.60;4.07;;;;;;;13.31;100.00;100970.22;4919974;29;20036;-89
2023/09/01 01:47:15;;;;;;;12.30;3.78;;;;;;;13.36;100.00;100983.22;4920702;29;20094;-88
2023/09/01 01:49:50;;;;;;;9.15;3.65;;;;;;;13.37;100.00;100986.75;4919657;29;20095;-88
2023/09/01 01:52:15;;;;;;;11.15;4.28;;;;;;;13.34;100.00;100985.31;4920461;29;20475;-88
2023/09/01 01:54:43;;;;;;;9.63;4.33;;;;;;;13.38;100.00;100986.53;4919837;29;20120;-88
2023/09/01 01:57:26;;;;;;;11.95;4.63;;;;;;;13.48;100.00;100994.97;4903998;29;20439;-88
2023/09/01 01:59:54;;;;;;;9.80;4.07;;;;;;;13.49;100.00;100988.47;4903891;29;20059;-87
2023/09/01 02:02:22;;;;;;;6.70;3.80;;;;;;;13.48;100.00;100981.34;4919727;29;20472;-88
2023/09/01 02:05:06;;;;;;;11.15;4.25;;;;;;;13.53;100.00;100972.47;4936991;29;20031;-88
2023/09/01 02:07:42;;;;;;;;;;;;;;;;;;;;;
2023/09/01 02:10:08;;;;;;;8.30;3.60;;;;;;;13.62;100.00;100975.69;4936489;29;20035;-88
2023/09/01 02:12:49;;;;;;;;;;;;;;;;;;;;;
2023/09/01 02:15:20;;;;;;;10.70;4.55;;;;;;;13.63;100.00;100963.75;4907420;29;20034;-88
2023/09/01 02:17:48;;;;;;;9.77;4.03;;;;;;;13.63;100.00;100955.56;4904636;29;20445;-89
2023/09/01 02:20:16;;;;;;;11.20;4.20;;;;;;;13.68;100.00;100969.31;4920143;29;20435;-88
2023/09/01 02:22:55;;;;;;;;;;;;;;;;;;;;;
2023/09/01 02:25:21;;;;;;;10.57;4.30;;;;;;;13.69;100.00;100969.06;4936283;29;20046;-89
2023/09/01 02:27:49;;;;;;;12.45;4.32;;;;;;;13.74;100.00;100968.38;4935886;29;20107;-88
2023/09/01 02:30:15;;;;;;;8.27;4.63;;;;;;;13.77;100.00;100972.53;4903575;29;20043;-88
2023/09/01 02:32:45;;;;;;;10.57;4.30;;;;;;;13.77;100.00;100969.81;4934903;29;20408;-88
2023/09/01 02:35:13;;;;;;;9.32;4.60;;;;;;;13.76;100.00;100974.44;4904042;29;20039;-88
2023/09/01 02:37:39;;;;;;;5.60;3.90;;;;;;;13.74;100.00;100967.56;4920070;29;20032;-88
2023/09/01 02:40:12;;;;;;;10.15;4.57;;;;;;;13.71;100.00;100963.38;4936377;29;20492;-88
2023/09/01 02:42:51;;;;;;;10.43;4.35;;;;;;;13.65;100.00;100954.25;4919732;29;20031;-88
2023/09/01 02:45:28;;;;;;;11.13;4.57;;;;;;;13.63;100.00;100947.38;4904543;29;20046;-88
2023/09/01 02:48:05;;;;;;;6.45;4.07;;;;;;;13.60;100.00;100945.94;4891085;29;20095;-90
2023/09/01 02:50:31;;;;;;;10.75;4.45;;;;;;;13.59;100.00;100949.72;4920108;29;20036;-88
2023/09/01 02:53:22;;;;;;;10.57;4.60;;;;;;;13.58;100.00;100952.69;4920005;29;20464;-88
2023/09/01 02:55:50;;;;;;;8.57;4.13;;;;;;;13.60;100.00;100945.13;4907348;29;20437;-88
2023/09/01 02:58:26;;;;;;;11.38;4.22;;;;;;;13.66;100.00;100958.63;4934723;29;20448;-88
2023/09/01 03:00:52;;;;;;;9.30;4.35;;;;;;;13.66;100.00;100966.00;4903696;29;20039;-88
2023/09/01 03:03:19;;;;;;;11.80;4.45;;;;;;;13.66;100.00;100974.19;4919287;29;20424;-88
2023/09/01 03:05:55;;;;;;;9.20;4.00;;;;;;;13.61;100.00;100954.94;4919162;29;20495;-88
2023/09/01 03:08:32;;;;;;;10.25;4.70;;;;;;;13.63;100.00;100963.75;4904189;29;20392;-88
2023/09/01 03:10:57;;;;;;;11.32;4.03;;;;;;;13.59;100.00;100960.63;4919980;29;20024;-88
2023/09/01 03:13:32;;;;;;;10.00;4.07;;;;;;;13.64;100.00;100968.09;4918953;29;20432;-88
2023/09/01 03:15:58;;;;;;;11.68;4.30;;;;;;;13.61;100.00;100955.78;4919277;29;20469;-88
2023/09/01 03:18:26;;;;;;;6.70;4.05;;;;;;;13.67;100.00;100945.84;4918712;29;20063;-88
2023/09/01 03:21:07;;;;;;;10.95;4.60;;;;;;;13.75;100.00;100950.97;4918612;29;20038;-88
2023/09/01 03:23:32;;;;;;;10.37;4.13;;;;;;;13.73;100.00;100936.75;4904457;29;20150;-88
2023/09/01 03:26:05;;;;;;;12.05;4.32;;;;;;;13.80;100.00;100944.78;4919084;29;20456;-88
2023/09/01 03:28:35;;;;;;;9.60;4.45;;;;;;;13.80;100.00;100947.53;4919411;29;20377;-88
2023/09/01 03:31:25;;;;;;;8.17;3.87;;;;;;;13.81;100.00;100941.84;4888925;29;20431;-88
2023/09/01 03:33:56;;;;;;;9.75;3.90;;;;;;;13.86;100.00;100944.69;4919178;29;20461;-88
2023/09/01 03:36:23;;;;;;;9.02;4.13;;;;;;;13.88;100.00;100936.28;4919095;29;20036;-88
2023/09/01 03:38:54;;;;;;;11.77;5.07;;;;;;;13.93;100.00;100939.13;4919027;29;20027;-89
2023/09/01 03:41:19;;;;;;;8.98;4.25;;;;;;;13.97;100.00;100943.03;4922206;29;20046;-88
2023/09/01 03:43:52;;;;;;;10.63;4.13;;;;;;;13.95;100.00;100928.81;4921764;29;20031;-89
2023/09/01 03:46:32;;;;;;;10.70;4.20;;;;;;;14.02;100.00;100935.00;4921961;29;20044;-88
2023/09/01 03:48:58;;;;;;;9.13;4.15;;;;;;;14.01;100.00;100929.75;4907479;29;20040;-89
2023/09/01 03:51:34;;;;;;;8.90;4.23;;;;;;;13.98;100.00;100928.34;4922315;29;20432;-88
2023/09/01 03:53:59;;;;;;;7.43;4.13;;;;;;;14.03;100.00;100933.91;4937810;29;20066;-88
2023/09/01 03:56:28;;;;;;;10.07;4.37;;;;;;;14.07;100.00;100936.16;4921609;29;20063;-88
2023/09/01 03:59:09;;;;;;;;;;;;;;;;;;;;;
2023/09/01 04:01:43;;;;;;;6.63;4.30;;;;;;;14.06;100.00;100932.63;4923591;29;20054;-89
2023/09/01 04:04:11;;;;;;;8.25;4.13;;;;;;;14.04;100.00;100927.41;4921815;29;20122;-89
2023/09/01 04:06:44;;;;;;;10.47;4.50;;;;;;;14.04;100.00;100926.56;4921600;29;20099;-88
2023/09/01 04:09:14;;;;;;;9.75;4.60;;;;;;;14.05;100.00;100920.03;4922133;29;20032;-89
2023/09/01 04:11:45;;;;;;;11.18;4.72;;;;;;;14.08;100.00;100924.19;4906138;29;20059;-88
2023/09/01 04:14:11;;;;;;;6.40;3.88;;;;;;;14.08;100.00;100925.00;4937515;29;20027;-89
2023/09/01 04:16:49;;;;;;;;;;;;;;;;;;;;;
2023/09/01 04:19:17;;;;;;;10.30;3.90;;;;;;;14.11;100.00;100918.25;4923924;29;20039;-89
2023/09/01 04:21:57;;;;;;;10.93;4.28;;;;;;;14.11;100.00;100919.09;4937813;29;20409;-88
2023/09/01 04:24:38;;;;;;;10.18;4.28;;;;;;;14.11;100.00;100919.09;4937155;29;20064;-88
2023/09/01 04:27:04;;;;;;;10.23;4.10;;;;;;;14.14;100.00;100920.50;4891305;29;20048;-88
2023/09/01 04:29:36;;;;;;;7.30;4.13;;;;;;;14.13;100.00;100919.69;4937356;29;20380;-88
2023/09/01 04:32:05;;;;;;;8.13;4.40;;;;;;;14.14;100.00;100917.78;4891425;29;20036;-88
2023/09/01 04:34:56;;;;;;;10.32;4.28;;;;;;;14.14;100.00;100907.72;4937070;29;20042;-88
2023/09/01 04:37:30;;;;;;;8.25;4.47;;;;;;;14.18;100.00;100906.16;4921789;29;20036;-88
2023/09/01 04:39:58;;;;;;;7.80;4.37;;;;;;;14.18;100.00;100906.16;4921498;29;20055;-88
2023/09/01 04:42:26;;;;;;;7.55;4.13;;;;;;;14.24;100.00;100919.94;4937955;29;20035;-88
2023/09/01 04:44:56;;;;;;;7.22;4.30;;;;;;;14.19;100.00;100907.81;4920853;29;20043;-88
2023/09/01 04:47:34;;;;;;;;;;;;;;;;;;;;;
2023/09/01 04:50:14;;;;;;;10.27;4.20;;;;;;;14.19;100.00;100913.28;4923018;29;20031;-88
2023/09/01 04:53:03;;;;;;;;;;;;;;;;;;;;;
2023/09/01 04:58:21;;;;;;;7.72;3.95;;;;;;;14.21;100.00;100937.59;4938464;29;20094;-88
2023/09/01 05:01:05;;;;;;;;;;;;;;;;;;;;;
2023/09/01 05:06:26;;;;;;;6.87;4.10;;;;;;;14.29;100.00;100912.69;4924774;29;20070;-88
2023/09/01 05:09:08;;;;;;;8.18;4.40;;;;;;;14.33;100.00;100919.31;4905291;29;20040;-88
2023/09/01 05:11:46;;;;;;;8.10;4.43;;;;;;;14.39;100.00;100920.25;4936971;29;20042;-87
2023/09/01 05:14:24;;;;;;;12.50;4.40;;;;;;;14.42;100.00;100917.03;4906631;29;20039;-88
2023/09/01 05:16:54;;;;;;;8.25;4.38;;;;;;;14.47;100.00;100922.63;4920575;29;20118;-87
2023/09/01 05:19:27;;;;;;;10.07;4.07;;;;;;;14.55;100.00;100930.44;4905468;29;20040;-88
2023/09/01 05:21:57;;;;;;;7.47;4.10;;;;;;;14.61;100.00;100930.56;4921612;29;20035;-88
2023/09/01 05:24:40;;;;;;;;;;;;;;;;;;;;;
2023/09/01 05:27:09;;;;;;;6.72;4.05;;;;;;;14.71;100.00;100931.63;4923026;29;20047;-88
2023/09/01 05:29:37;;;;;;;9.55;4.15;;;;;;;14.73;100.00;100934.13;4935793;29;20027;-88
2023/09/01 05:32:07;;;;;;;8.60;4.07;;;;;;;14.73;100.00;100934.13;4920214;29;20091;-89
2023/09/01 05:34:49;;;;;;;;;;;;;;;;;;;;;
2023/09/01 05:37:19;;;;;;;10.73;4.78;;;;;;;14.81;100.00;100941.13;4930192;29;20042;-89
2023/09/01 05:39:55;;;;;;;8.88;4.57;;;;;;;14.79;100.00;100935.88;4937421;29;20050;-89
2023/09/01 05:43:17;;;;;;;10.52;4.90;;;;;;;14.85;100.00;100937.66;4921201;29;20083;-90
2023/09/01 05:45:36;;;;;;;11.30;4.70;;;;;;;14.88;100.00;100929.00;4917592;29;20035;-95
2023/09/01 05:48:22;;;;;;;10.13;4.80;;;;;;;14.94;100.00;100935.41;4910387;29;20035;-96
2023/09/01 05:50:54;;;;;;;12.50;4.63;;;;;;;15.00;100.00;100931.69;4912473;29;20103;-96
2023/09/01 05:53:56;;;;;;;;;;;;;;;;;;;;;
2023/09/01 05:56:51;;;;;;;13.02;5.03;;;;;;;15.20;100.00;100931.22;4902389;29;20089;-95
2023/09/01 05:59:43;;;;;;;10.07;5.23;;;;;;;15.21;100.00;100924.69;4924100;29;20039;-94
2023/09/01 06:02:22;;;;;;;8.35;5.38;;;;;;;15.30;100.00;100919.66;4906343;29;20119;-95
2023/09/01 06:04:58;;;;;;;9.55;5.22;;;;;;;15.40;100.00;100919.03;4891415;29;20042;-94
2023/09/01 06:08:09;;;;;;;10.45;5.13;;;;;;;15.45;100.00;100927.31;4906967;29;20039;-96
2023/09/01 06:13:55;;;;;;;;;;;;;;;;;;;;;
2023/09/01 06:16:46;;;;;;;10.15;5.30;;;;;;;15.53;100.00;100921.47;4909828;29;20115;-94
2023/09/01 06:19:24;;;;;;;9.13;5.43;;;;;;;15.50;100.00;100927.44;4907824;29;20031;-95
2023/09/01 06:22:30;;;;;;;8.13;5.53;;;;;;;15.53;100.00;100937.88;4890832;29;20464;-96
2023/09/01 06:25:44;;;;;;;;;;;;;;;;;;;;;
2023/09/01 06:31:43;;;;;;;9.60;5.70;;;;;;;15.53;100.00;100939.75;4939273;29;20054;-96
2023/09/01 06:34:24;;;;;;;12.15;6.38;;;;;;;15.57;100.00;100941.75;4921426;29;20042;-95
2023/09/01 06:40:20;;;;;;;10.52;5.97;;;;;;;15.66;100.00;100944.09;4865265;29;20044;-96
2023/09/01 06:43:08;;;;;;;10.57;5.83;;;;;;;15.67;100.00;100948.50;4845369;29;20059;-95
2023/09/01 06:45:54;;;;;;;;;;;;;;;;;;;;;
2023/09/01 06:48:35;;;;;;;;;;;;;;;;;;;;;
2023/09/01 06:51:00;;;;;;;12.00;6.63;;;;;;;15.84;100.00;100954.00;4924020;29;20115;-88
2023/09/01 06:53:38;;;;;;;9.97;6.50;;;;;;;15.90;100.00;100948.38;4918927;29;20468;-89
2023/09/01 06:56:03;;;;;;;16.77;7.18;;;;;;;15.91;100.00;100955.47;4904775;29;20127;-89
2023/09/01 06:58:39;;;;;;;16.30;6.57;;;;;;;15.89;100.00;100951.34;4919524;29;20524;-91
2023/09/01 07:01:33;;;;;;;13.60;6.85;;;;;;;15.92;100.00;100948.13;4935299;29;20051;-90
2023/09/01 07:04:16;;;;;;;11.70;6.72;;;;;;;15.84;100.00;100929.38;4934902;29;20031;-90
2023/09/01 07:06:45;;;;;;;11.50;7.00;;;;;;;15.83;100.00;100935.94;4919544;29;20468;-90
2023/09/01 07:09:18;;;;;;;13.73;7.97;;;;;;;15.85;100.00;100937.31;4919261;29;20040;-90
2023/09/01 07:11:46;;;;;;;13.10;7.87;;;;;;;15.84;100.00;100926.63;4919982;29;20028;-90
2023/09/01 07:14:12;;;;;;;14.65;7.57;;;;;;;15.85;100.00;100920.91;4919484;29;20095;-90
2023/09/01 07:16:47;;;;;;;11.15;7.22;;;;;;;15.87;100.00;100921.50;4938252;29;20024;-90
2023/09/01 07:19:26;;;;;;;14.33;7.57;;;;;;;15.89;100.00;100922.06;4915406;29;20031;-90
2023/09/01 07:22:17;;;;;;;10.23;6.70;;;;;;;15.92;100.00;100928.97;4923209;29;20039;-90
2023/09/01 07:24:53;;;;;;;13.30;7.78;;;;;;;15.91;100.00;100936.31;4907105;29;20448;-91
2023/09/01 07:27:33;;;;;;;12.35;7.43;;;;;;;15.88;100.00;100930.53;4922891;29;20106;-91
2023/09/01 07:30:13;;;;;;;;;;;;;;;;;;;;;
2023/09/01 07:35:37;;;;;;;11.55;7.90;;;;;;;15.82;100.00;100926.06;4928826;29;20065;-91
2023/09/01 07:38:39;;;;;;;15.27;8.05;;;;;;;15.82;100.00;100924.16;4938293;29;20031;-90
2023/09/01 07:41:10;;;;;;;14.40;8.38;;;;;;;15.82;100.00;100923.31;4909823;29;20036;-90
2023/09/01 07:43:50;;;;;;;;;;;;;;;;;;;;;
2023/09/01 07:46:18;;;;;;;12.90;8.17;;;;;;;15.82;100.00;100920.59;4909563;29;20047;-90
2023/09/01 07:49:02;;;;;;;12.85;8.00;;;;;;;15.86;100.00;100928.06;4937791;29;20052;-90
2023/09/01 07:54:24;;;;;;;11.57;8.57;;;;;;;15.89;100.00;100924.00;4920839;29;20050;-90
2023/09/01 07:56:57;;;;;;;15.05;8.60;;;;;;;15.91;100.00;100932.78;4921827;29;20028;-89
2023/09/01 07:59:24;;;;;;;13.60;8.47;;;;;;;15.87;100.00;100931.59;4907139;29;20483;-90
2023/09/01 08:02:00;;;;;;;13.13;8.63;;;;;;;15.89;100.00;100938.50;4905251;29;20044;-90
2023/09/01 08:04:46;;;;;;;13.65;8.70;;;;;;;15.88;100.00;100936.81;4923476;29;20032;-90
2023/09/01 08:07:16;;;;;;;12.43;8.90;;;;;;;15.93;100.00;100936.94;4907668;29;20477;-90
2023/09/01 08:09:52;;;;;;;12.43;8.60;;;;;;;15.98;100.00;100941.66;4922040;29;20377;-90
2023/09/01 08:12:25;;;;;;;14.70;8.77;;;;;;;16.03;100.00;100949.91;4907528;29;20127;-90
2023/09/01 08:15:14;;;;;;;11.43;8.10;;;;;;;16.09;100.00;100959.91;4937646;29;20039;-90
2023/09/01 08:17:43;;;;;;;12.32;8.55;;;;;;;16.01;100.00;100957.56;4922341;29;20070;-90
2023/09/01 08:20:11;;;;;;;14.20;8.57;;;;;;;16.01;100.00;100954.00;4905812;29;20031;-90
2023/09/01 08:22:49;;;;;;;;;;;;;;;;;;;;;
2023/09/01 08:25:20;;;;;;;11.80;8.83;;;;;;;16.03;100.00;100960.88;4922814;29;20529;-90
2023/09/01 08:28:02;;;;;;;11.18;8.30;;;;;;;16.04;100.00;100956.25;4921433;29;20438;-90
2023/09/01 08:30:45;;;;;;;10.77;8.10;;;;;;;16.06;100.00;100959.53;4908320;29;20036;-90
2023/09/01 08:33:20;;;;;;;11.20;8.45;;;;;;;16.08;100.00;100960.97;4922753;29;20031;-90
2023/09/01 08:35:48;;;;;;;11.50;8.43;;;;;;;16.02;100.00;100961.13;4923154;29;20130;-90
2023/09/01 08:38:29;;;;;;;10.83;7.67;;;;;;;15.99;100.00;100962.47;4938428;29;20075;-89
2023/09/01 08:41:17;;;;;;;10.55;8.48;;;;;;;16.02;100.00;100972.06;4922268;29;20079;-90
2023/09/01 08:43:54;;;;;;;9.07;7.93;;;;;;;16.04;100.00;100975.41;4906310;29;20067;-90
2023/09/01 08:46:25;;;;;;;10.90;8.13;;;;;;;16.11;100.00;100979.63;4921801;29;20059;-90
2023/09/01 08:49:11;;;;;;;9.38;7.32;;;;;;;16.11;100.00;100976.06;4922618;29;20071;-90
2023/09/01 08:51:55;;;;;;;;;;;;;;;;;;;;;
2023/09/01 08:54:41;;;;;;;;;;;;;;;;;;;;;
2023/09/01 08:57:32;;;;;;;9.75;7.45;;;;;;;16.12;100.00;100984.03;4944679;29;20131;-90
2023/09/01 09:00:04;;;;;;;14.90;8.60;;;;;;;16.11;100.00;100987.00;4894626;29;20055;-89
2023/09/01 09:02:32;;;;;;;9.98;7.93;;;;;;;16.07;100.00;100991.31;4905927;29;20046;-89
2023/09/01 09:08:36;;;;;;;8.95;7.72;;;;;;;16.06;100.00;100993.25;4919965;29;20413;-92
2023/09/01 09:11:29;;;;;;;;;;;;;;;;;;;;;
2023/09/01 09:14:15;;;;;;;11.13;8.20;;;;;;;15.95;100.00;100985.94;4938135;29;20040;-92
2023/09/01 09:17:04;;;;;;;10.57;8.02;;;;;;;15.93;100.00;100990.84;4905027;29;20032;-92
2023/09/01 09:19:59;;;;;;;;;;;;;;;;;;;;;
2023/09/01 09:23:01;;;;;;;;;;;;;;;;;;;;;
2023/09/01 09:25:49;;;;;;;8.43;6.47;;;;;;;15.80;100.00;100986.50;4938121;29;20407;-92
2023/09/01 09:28:35;;;;;;;9.75;7.13;;;;;;;15.81;100.00;100985.44;4908166;29;20047;-93
2023/09/01 09:31:49;;;;;;;;;;;;;;;;;;;;;
2023/09/01 09:34:37;;;;;;;;;;;;;;;;;;;;;
2023/09/01 09:37:56;;;;;;;;;;;;;;;;;;;;;
2023/09/01 09:40:34;;;;;;;7.82;7.03;;;;;;;16.01;100.00;101001.34;4929932;29;20044;-93
2023/09/01 09:43:20;;;;;;;;;;;;;;;;;;;;;
2023/09/01 09:45:54;;;;;;;11.25;7.70;;;;;;;16.16;100.00;101008.97;4923607;29;20044;-90
2023/09/01 09:48:26;;;;;;;9.03;6.93;;;;;;;16.11;100.00;101009.72;4920568;29;20031;-90
2023/09/01 09:51:07;;;;;;;7.15;5.80;;;;;;;16.18;100.00;101019.69;4935913;29;20038;-90
2023/09/01 09:53:37;;;;;;;7.68;6.18;;;;;;;16.21;100.00;101006.34;4920169;29;20492;-90
2023/09/01 09:56:33;;;;;;;6.18;4.88;;;;;;;16.24;100.00;101008.56;4920211;29;20091;-92
2023/09/01 09:59:26;;;;;;;;;;;;;;;;;;;;;
2023/09/01 10:05:04;;;;;;;5.13;4.63;;;;;;;16.36;100.00;100994.78;4937764;29;20043;-92
2023/09/01 10:11:46;;;;;;;;;;;;;;;;;;;;;
2023/09/01 10:17:54;;;;;;;6.90;4.33;;;;;;;16.40;100.00;100987.75;4927264;29;20043;-92
2023/09/01 10:20:36;;;;;;;4.88;4.15;;;;;;;16.51;100.00;100993.38;4906855;29;20042;-91
2023/09/01 10:23:15;;;;;;;4.97;4.47;;;;;;;16.53;100.00;100993.94;4919817;29;20028;-91
2023/09/01 10:26:24;;;;;;;5.55;4.80;;;;;;;16.59;100.00;101001.16;4919298;29;20135;-91
2023/09/01 10:29:07;;;;;;;5.97;4.57;;;;;;;16.56;100.00;100996.16;4919631;29;20230;-90
2023/09/01 10:31:38;;;;;;;5.10;4.60;;;;;;;16.63;100.00;100999.56;4920699;29;20127;-89
2023/09/01 10:34:39;;;;;;;5.22;4.25;;;;;;;16.70;100.00;100993.88;4919529;29;20098;-90
2023/09/01 10:41:02;;;;;;;5.07;4.10;;;;;;;17.13;100.00;101009.56;4901218;29;20476;-91
2023/09/01 10:43:45;;;;;;;4.28;3.85;;;;;;;17.34;100.00;101010.63;4897198;29;20039;-92
2023/09/01 10:46:24;;;;;;;4.87;3.50;;;;;;;17.58;100.00;101017.75;4935812;29;20122;-92
2023/09/01 10:49:15;;;;;;;6.40;3.97;;;;;;;17.73;100.00;101026.16;4921742;29;20036;-92
2023/09/01 10:52:31;;;;;;;4.18;3.78;;;;;;;17.76;100.00;101033.88;4919304;29;20039;-92
2023/09/01 10:55:03;;;;;;;3.85;3.45;;;;;;;17.74;100.00;101030.53;4908910;29;20032;-93
2023/09/01 10:58:15;;;;;;;5.72;3.63;;;;;;;17.82;100.00;101030.06;4940212;29;20178;-93
2023/09/01 11:07:53;;;;;;;3.47;3.17;;;;;;;18.08;100.00;101022.09;4925830;29;20053;-94
2023/09/01 11:11:18;;;;;;;;;;;;;;;;;;;;;
2023/09/01 11:14:31;;;;;;;3.38;2.95;;;;;;;18.34;100.00;101027.81;4945283;29;20119;-92
2023/09/01 11:17:08;;;;;;;4.00;2.80;;;;;;;18.48;100.00;101011.69;4923100;29;20040;-92
2023/09/01 11:19:52;;;;;;;3.17;2.80;;;;;;;18.50;100.00;101013.09;4929251;29;20027;-92
2023/09/01 11:22:37;;;;;;;3.10;2.80;;;;;;;18.50;100.00;101020.47;4932935;29;20087;-93
2023/09/01 11:25:13;;;;;;;3.40;3.10;;;;;;;18.64;100.00;101016.19;4944440;29;20214;-92
2023/09/01 11:28:19;;;;;;;2.50;2.30;;;;;;;18.80;100.00;101008.84;4928453;29;20031;-92
2023/09/01 11:31:17;;;;;;;2.30;2.00;;;;;;;18.89;100.00;101017.47;4946554;29;20484;-93
2023/09/01 11:34:17;;;;;;;3.38;2.15;;;;;;;19.03;100.00;101029.63;4929428;29;20043;-93
2023/09/01 11:37:22;;;;;;;;;;;;;;;;;;;;;
2023/09/01 11:40:07;;;;;;;;;;;;;;;;;;;;;
2023/09/01 11:43:21;;;;;;;;;;;;;;;;;;;;;
2023/09/01 11:49:32;;;;;;;;;;;;;;;;;;;;;
2023/09/01 11:52:30;;;;;;;2.40;2.20;;;;;;;20.73;100.00;101040.06;4925016;29;20036;-93
2023/09/01 11:55:58;;;;;;;;;;;;;;;;;;;;;
2023/09/01 12:02:30;;;;;;;;;;;;;;;;;;;;;
2023/09/01 12:08:42;;;;;;;;;;;;;;;;;;;;;
2023/09/01 12:29:02;;;;;;;;;;;;;;;;;;;;;
2023/09/01 12:49:48;;;;;;;;;;;;;;;;;;;;;
2023/09/01 13:30:13;;;;;;;2.40;2.30;;;;;;;38.75;38.68;101087.56;4832881;29;20043;-93
2023/09/01 20:38:29;;;;;;;6.67;5.97;;;;;;;19.35;100.00;101314.75;4919808;29;20118;-89
2023/09/01 20:45:11;;;;;;;8.40;6.00;;;;;;;19.18;100.00;101328.66;4919364;29;20042;-90
2023/09/01 21:05:13;;;;;;;9.85;6.72;;;;;;;19.04;100.00;101361.25;4919808;29;20028;-89
2023/09/01 21:11:13;;;;;;;8.57;7.43;;;;;;;18.56;100.00;101346.44;4919175;29;20047;-91
2023/09/01 21:14:07;;;;;;;15.00;7.95;;;;;;;18.57;100.00;101337.91;4902336;29;20043;-93
2023/09/01 21:16:45;;;;;;;;;;;;;;;;;;;;;
2023/09/01 21:19:24;;;;;;;;;;;;;;;;;;;;;
2023/09/01 21:21:55;;;;;;;10.10;8.55;;;;;;;18.50;100.00;101351.03;4937879;29;20062;-91
2023/09/01 21:24:30;;;;;;;13.50;10.50;;;;;;;18.47;100.00;101337.81;4936403;29;20118;-91
2023/09/01 21:27:08;;;;;;;;;;;;;;;;;;;;;
2023/09/01 21:29:47;;;;;;;10.18;9.07;;;;;;;18.37;100.00;101348.66;4921812;29;20044;-92
2023/09/01 21:32:36;;;;;;;11.77;9.77;;;;;;;18.33;100.00;101347.50;4920756;29;20083;-92
2023/09/01 21:35:27;;;;;;;12.43;8.88;;;;;;;18.27;100.00;101343.03;4936971;29;20028;-92
2023/09/01 21:41:22;;;;;;;11.02;9.30;;;;;;;18.12;100.00;101354.66;4861287;29;20046;-92
2023/09/01 21:47:41;;;;;;;;;;;;;;;;;;;;;
2023/09/01 21:50:15;;;;;;;;;;;;;;;;;;;;;
2023/09/01 21:52:51;;;;;;;14.33;11.10;;;;;;;17.91;100.00;101383.72;4938280;29;20037;-91
2023/09/01 21:55:20;;;;;;;13.23;11.57;;;;;;;17.87;100.00;101375.94;4905537;29;20043;-91
2023/09/01 21:58:09;;;;;;;14.38;11.80;;;;;;;17.76;100.00;101362.31;4921055;29;20074;-92
2023/09/01 22:24:36;;;;;;;20.37;14.27;;;;;;;17.61;100.00;101404.94;4859718;29;20060;-90
2023/09/01 22:30:41;;;;;;;;;;;;;;;;;;;;;
2023/09/01 22:33:37;;;;;;;20.65;14.60;;;;;;;17.67;100.00;101403.06;4918572;29;20032;-91
2023/09/01 22:36:15;;;;;;;;;;;;;;;;;;;;;
2023/09/01 22:38:53;;;;;;;;;;;;;;;;;;;;;
2023/09/01 22:41:47;;;;;;;21.13;15.02;;;;;;;17.64;100.00;101406.31;4828243;29;20046;-90
2023/09/01 22:44:17;;;;;;;20.63;15.73;;;;;;;17.55;100.00;101397.66;4826295;29;20392;-91
2023/09/01 22:46:46;;;;;;;21.42;15.52;;;;;;;17.65;100.00;101406.06;4814464;29;20034;-91
2023/09/01 22:49:22;;;;;;;20.52;16.23;;;;;;;17.64;100.00;101396.19;4829308;29;20546;-91
2023/09/01 22:52:03;;;;;;;;;;;;;;;;;;;;;
2023/09/01 22:55:01;;;;;;;23.40;16.20;;;;;;;17.56;100.00;101402.09;4831301;29;20040;-91
2023/09/01 23:07:49;;;;;;;19.13;15.20;;;;;;;17.30;100.00;101412.63;4921345;29;20051;-91
2023/09/01 23:17:57;;;;;;;22.90;16.25;;;;;;;17.14;100.00;101421.63;4921004;29;20036;-91
2023/09/01 23:53:57;;;;;;;;;;;;;;;;;;;;;
